Time;durP1;ratioP1;P1;durP2;ratioP2;P2;SDS_P1;SDS_P2;PMS_P1;PMS_P2;Temp;Humidity;BMP_temperature;BMP_pressure;BME280_temperature;BME280_humidity;BME280_pressure;Samples;Min_cycle;Max_cycle;Signal;HPM_P1;HPM_P2
2023/09/20 00:01:53;;;;;;;7.18;6.28;;;;;;;16.52;100.00;95449.28;4960952;28;20526;-85
2023/09/20 00:04:22;;;;;;;8.57;7.97;;;;;;;16.48;100.00;95440.19;4945826;28;20038;-85
2023/09/20 00:06:47;;;;;;;8.27;7.47;;;;;;;16.43;100.00;95438.19;4962921;28;20821;-87
2023/09/20 00:09:14;;;;;;;8.07;7.38;;;;;;;16.22;100.00;95435.66;4963283;28;20031;-87
2023/09/20 00:11:40;;;;;;;8.10;7.40;;;;;;;16.23;100.00;95463.41;4945991;28;20356;-87
2023/09/20 00:14:06;;;;;;;11.55;9.45;;;;;;;16.22;100.00;95453.94;4945272;28;20031;-86
2023/09/20 00:16:31;;;;;;;11.95;10.85;;;;;;;15.98;100.00;95451.81;4945473;28;20031;-87
2023/09/20 00:18:57;;;;;;;10.40;7.68;;;;;;;16.05;100.00;95463.91;4960864;28;20026;-88
2023/09/20 00:21:23;;;;;;;9.95;8.40;;;;;;;16.05;100.00;95469.16;4962559;28;20070;-87
2023/09/20 00:23:49;;;;;;;8.23;7.35;;;;;;;16.03;100.00;95467.69;4946046;28;20027;-89
2023/09/20 00:26:17;;;;;;;8.90;8.07;;;;;;;15.98;100.00;95468.28;4962905;28;20027;-89
2023/09/20 00:28:46;;;;;;;9.23;7.73;;;;;;;15.93;100.00;95465.44;4962724;28;20082;-89
2023/09/20 00:31:12;;;;;;;8.93;8.07;;;;;;;15.91;100.00;95470.03;4962896;28;20621;-89
2023/09/20 00:33:37;;;;;;;8.57;7.88;;;;;;;15.98;100.00;95470.91;4932771;28;20027;-89
2023/09/20 00:36:03;;;;;;;8.32;7.57;;;;;;;15.92;100.00;95466.44;4949457;28;20129;-87
2023/09/20 00:38:28;;;;;;;8.27;7.55;;;;;;;15.87;100.00;95455.75;4963056;28;20031;-88
2023/09/20 00:40:54;;;;;;;7.93;7.22;;;;;;;15.86;100.00;95461.16;4964458;28;20076;-89
2023/09/20 00:43:23;;;;;;;11.05;7.97;;;;;;;15.78;100.00;95468.16;4961955;28;20488;-89
2023/09/20 00:45:50;;;;;;;13.18;11.93;;;;;;;15.60;100.00;95474.84;4944786;28;20031;-89
2023/09/20 00:48:16;;;;;;;8.40;7.70;;;;;;;15.44;100.00;95477.69;4963325;28;20059;-89
2023/09/20 00:50:42;;;;;;;7.35;6.78;;;;;;;15.44;100.00;95478.50;4962702;28;20126;-91
2023/09/20 00:53:11;;;;;;;8.18;7.43;;;;;;;15.34;100.00;95482.41;4963144;28;20026;-89
2023/09/20 00:55:37;;;;;;;7.97;7.20;;;;;;;15.37;100.00;95492.47;4963574;28;20031;-91
2023/09/20 00:58:10;;;;;;;9.40;7.75;;;;;;;15.32;100.00;95501.66;4942769;28;20273;-89
2023/09/20 01:00:40;;;;;;;7.95;7.32;;;;;;;15.34;100.00;95508.50;4946152;28;20129;-90
2023/09/20 01:03:06;;;;;;;8.20;7.40;;;;;;;15.30;100.00;95506.25;4934443;28;20097;-88
2023/09/20 01:05:37;;;;;;;9.88;8.98;;;;;;;15.30;100.00;95501.03;4962123;28;20034;-89
2023/09/20 01:08:04;;;;;;;9.18;8.35;;;;;;;15.30;100.00;95506.25;4962271;28;20053;-89
2023/09/20 01:10:31;;;;;;;7.85;7.15;;;;;;;15.31;100.00;95507.06;4946977;28;20106;-90
2023/09/20 01:12:58;;;;;;;9.05;8.10;;;;;;;15.18;100.00;95505.16;4962788;28;20023;-91
2023/09/20 01:15:27;;;;;;;7.88;7.28;;;;;;;15.14;100.00;95514.31;4956173;28;20034;-89
2023/09/20 01:17:57;;;;;;;7.17;6.47;;;;;;;15.13;100.00;95509.28;4949136;28;20031;-90
2023/09/20 01:20:27;;;;;;;7.70;6.95;;;;;;;15.13;100.00;95510.09;4954847;28;20121;-90
2023/09/20 01:22:54;;;;;;;10.75;7.50;;;;;;;15.11;100.00;95508.66;4953405;28;20077;-91
2023/09/20 01:25:24;;;;;;;7.43;6.70;;;;;;;15.02;100.00;95504.56;4962829;28;20077;-90
2023/09/20 01:27:55;;;;;;;8.63;7.93;;;;;;;14.92;100.00;95499.63;4952742;28;20053;-91
2023/09/20 01:30:25;;;;;;;11.27;8.70;;;;;;;14.93;100.00;95497.84;4946516;28;20041;-90
2023/09/20 01:33:02;;;;;;;9.95;8.63;;;;;;;15.01;100.00;95493.31;4943581;28;20516;-90
2023/09/20 01:35:29;;;;;;;8.18;7.57;;;;;;;15.10;100.00;95494.81;4964845;28;20607;-90
2023/09/20 01:37:55;;;;;;;9.70;8.60;;;;;;;14.92;100.00;95483.97;4963000;28;20117;-91
2023/09/20 01:40:23;;;;;;;8.68;7.70;;;;;;;14.73;100.00;95476.75;4962694;28;20058;-89
2023/09/20 01:42:49;;;;;;;9.88;7.78;;;;;;;14.75;100.00;95495.63;4946215;28;20512;-90
2023/09/20 01:45:18;;;;;;;9.27;8.35;;;;;;;14.72;100.00;95499.41;4961336;28;20045;-86
2023/09/20 01:47:45;;;;;;;9.73;8.63;;;;;;;14.63;100.00;95495.28;4961776;28;20023;-88
2023/09/20 01:50:12;;;;;;;9.25;8.55;;;;;;;14.58;100.00;95500.22;4952289;28;20043;-89
2023/09/20 01:52:38;;;;;;;9.02;8.07;;;;;;;14.69;100.00;95507.59;4960162;28;20461;-91
2023/09/20 01:55:08;;;;;;;10.07;8.18;;;;;;;14.55;100.00;95508.41;4956033;28;20034;-89
2023/09/20 01:57:33;;;;;;;13.23;8.95;;;;;;;14.50;100.00;95499.50;4946790;28;20035;-90
2023/09/20 01:59:59;;;;;;;10.05;9.13;;;;;;;14.46;100.00;95500.84;4964247;28;20053;-91
2023/09/20 02:02:24;;;;;;;8.60;7.80;;;;;;;14.55;100.00;95504.97;4960991;28;20042;-89
2023/09/20 02:04:50;;;;;;;7.53;6.82;;;;;;;14.58;100.00;95499.41;4961023;28;20115;-89
2023/09/20 02:07:15;;;;;;;9.13;8.23;;;;;;;14.55;100.00;95490.16;4944453;28;20257;-88
2023/09/20 02:09:41;;;;;;;10.57;9.10;;;;;;;14.63;100.00;95490.06;4961160;28;20031;-89
2023/09/20 02:12:07;;;;;;;8.45;7.75;;;;;;;14.58;100.00;95483.75;4960409;28;20042;-87
2023/09/20 02:14:32;;;;;;;8.90;8.30;;;;;;;14.58;100.00;95484.56;4949434;28;20209;-90
2023/09/20 02:16:57;;;;;;;10.35;9.40;;;;;;;14.32;100.00;95463.34;4960882;28;20066;-88
2023/09/20 02:19:23;;;;;;;12.32;9.68;;;;;;;14.36;100.00;95485.50;4961990;28;20038;-89
2023/09/20 02:21:48;;;;;;;9.82;9.10;;;;;;;14.44;100.00;95484.59;4960889;28;20224;-89
2023/09/20 02:24:14;;;;;;;11.38;10.25;;;;;;;14.45;100.00;95484.41;4961692;28;20038;-91
2023/09/20 02:26:40;;;;;;;10.10;9.30;;;;;;;14.38;100.00;95486.16;4963340;28;20122;-92
2023/09/20 02:29:07;;;;;;;11.25;10.27;;;;;;;14.24;100.00;95487.72;4962770;28;20045;-92
2023/09/20 02:31:32;;;;;;;10.55;9.75;;;;;;;14.37;100.00;95491.53;4946336;28;20035;-90
2023/09/20 02:33:59;;;;;;;10.23;9.23;;;;;;;14.45;100.00;95496.66;4948777;28;20038;-91
2023/09/20 02:36:27;;;;;;;12.00;11.00;;;;;;;14.38;100.00;95491.34;4962514;28;20026;-88
2023/09/20 02:38:52;;;;;;;9.65;8.85;;;;;;;14.34;100.00;95484.88;4962535;28;20062;-89
2023/09/20 02:41:17;;;;;;;11.00;9.77;;;;;;;14.25;100.00;95484.09;4965267;28;20058;-90
2023/09/20 02:43:43;;;;;;;10.52;9.65;;;;;;;14.22;100.00;95488.91;4967771;28;20046;-92
2023/09/20 02:46:09;;;;;;;11.65;10.55;;;;;;;14.25;100.00;95485.94;4966249;28;20085;-91
2023/09/20 02:48:34;;;;;;;10.85;9.82;;;;;;;14.10;100.00;95485.09;4966640;28;20078;-91
2023/09/20 02:51:00;;;;;;;10.38;9.57;;;;;;;13.96;100.00;95481.53;4964525;28;20091;-89
2023/09/20 02:53:26;;;;;;;10.38;9.65;;;;;;;14.01;100.00;95497.41;4964678;28;20496;-88
2023/09/20 02:55:53;;;;;;;9.20;8.50;;;;;;;14.07;100.00;95507.09;4965431;28;20039;-90
2023/09/20 02:58:20;;;;;;;8.95;8.35;;;;;;;14.13;100.00;95503.78;4949818;28;20056;-92
2023/09/20 03:00:50;;;;;;;12.65;8.70;;;;;;;14.20;100.00;95504.69;4948287;28;20485;-92
2023/09/20 03:03:17;;;;;;;9.02;8.32;;;;;;;14.32;100.00;95512.88;4954202;28;20086;-85
2023/09/20 03:05:44;;;;;;;10.45;9.55;;;;;;;14.18;100.00;95501.47;4921036;28;20125;-90
2023/09/20 03:08:11;;;;;;;10.30;9.50;;;;;;;14.12;100.00;95504.78;4935396;28;20031;-87
2023/09/20 03:10:38;;;;;;;11.77;10.70;;;;;;;14.12;100.00;95499.59;4952171;28;20067;-89
2023/09/20 03:13:05;;;;;;;13.23;10.90;;;;;;;14.18;100.00;95511.91;4960191;28;20862;-89
2023/09/20 03:15:32;;;;;;;14.93;11.10;;;;;;;14.27;100.00;95517.81;4930044;28;20139;-90
2023/09/20 03:18:00;;;;;;;13.88;12.68;;;;;;;14.43;100.00;95532.50;4946837;28;20457;-89
2023/09/20 03:20:26;;;;;;;16.50;14.93;;;;;;;14.47;100.00;95525.94;4948862;28;20026;-89
2023/09/20 03:22:53;;;;;;;17.55;15.40;;;;;;;14.58;100.00;95538.50;4965455;28;20049;-90
2023/09/20 03:25:21;;;;;;;20.42;18.42;;;;;;;14.62;100.00;95551.00;4947248;28;20047;-91
2023/09/20 03:27:48;;;;;;;19.05;17.23;;;;;;;14.69;100.00;95556.31;4935356;28;20061;-89
2023/09/20 03:30:14;;;;;;;22.90;19.73;;;;;;;14.69;100.00;95564.94;4944821;28;20125;-88
2023/09/20 03:32:42;;;;;;;26.98;21.23;;;;;;;14.76;100.00;95567.66;4963945;28;20997;-87
2023/09/20 03:35:08;;;;;;;27.00;22.45;;;;;;;14.87;100.00;95582.81;4964239;28;20031;-88
2023/09/20 03:37:36;;;;;;;30.70;23.17;;;;;;;14.97;100.00;95587.75;4963269;28;20035;-89
2023/09/20 03:40:10;;;;;;;24.88;21.45;;;;;;;15.01;100.00;95592.44;4965093;28;20045;-89
2023/09/20 03:42:39;;;;;;;29.17;23.92;;;;;;;15.05;100.00;95596.31;4964257;28;20113;-87
2023/09/20 03:45:07;;;;;;;30.83;24.38;;;;;;;15.18;100.00;95601.69;4963300;28;20070;-90
2023/09/20 03:47:33;;;;;;;25.88;22.52;;;;;;;15.11;100.00;95585.16;4954482;28;20068;-90
2023/09/20 03:49:58;;;;;;;25.00;22.40;;;;;;;15.22;100.00;95600.31;4946693;28;20947;-89
2023/09/20 03:52:24;;;;;;;35.75;25.67;;;;;;;14.97;100.00;95600.81;4954722;28;20102;-87
2023/09/20 03:54:51;;;;;;;36.55;21.52;;;;;;;14.90;100.00;95597.31;4946027;28;20149;-87
2023/09/20 03:57:17;;;;;;;31.48;22.02;;;;;;;14.75;100.00;95590.31;4963378;28;20106;-89
2023/09/20 03:59:42;;;;;;;33.75;19.45;;;;;;;14.71;100.00;95591.66;4959902;28;20031;-90
2023/09/20 04:02:13;;;;;;;34.25;17.65;;;;;;;14.77;100.00;95592.72;4947041;28;20509;-89
2023/09/20 04:04:40;;;;;;;17.90;15.85;;;;;;;14.80;100.00;95576.72;4946160;28;20037;-88
2023/09/20 04:07:06;;;;;;;35.95;19.23;;;;;;;14.75;100.00;95579.88;4938794;29;20031;-86
2023/09/20 04:09:32;;;;;;;22.98;20.17;;;;;;;14.77;100.00;95574.47;4928953;29;20519;-88
2023/09/20 04:11:59;;;;;;;31.60;18.40;;;;;;;14.75;100.00;95577.25;4957286;28;20058;-87
2023/09/20 04:14:25;;;;;;;21.60;16.35;;;;;;;14.75;100.00;95576.44;4946395;28;20086;-90
2023/09/20 04:16:52;;;;;;;33.92;17.90;;;;;;;14.68;100.00;95567.72;4945412;28;20066;-86
2023/09/20 04:19:21;;;;;;;29.45;17.48;;;;;;;14.77;100.00;95569.25;4946732;28;20090;-90
2023/09/20 04:21:50;;;;;;;74.50;27.70;;;;;;;14.68;100.00;95554.69;4936068;28;20485;-89
2023/09/20 04:24:16;;;;;;;21.65;19.33;;;;;;;14.79;100.00;95580.31;4952605;28;20110;-89
2023/09/20 04:26:41;;;;;;;27.15;18.40;;;;;;;15.00;100.00;95587.41;4927395;28;20146;-86
2023/09/20 04:29:07;;;;;;;26.23;18.85;;;;;;;14.99;100.00;95584.00;4932782;29;20036;-89
2023/09/20 04:31:33;;;;;;;27.75;19.90;;;;;;;14.98;100.00;95587.59;4924079;29;20172;-89
2023/09/20 04:33:59;;;;;;;28.08;21.50;;;;;;;14.98;100.00;95592.81;4913625;29;20020;-88
2023/09/20 04:36:27;;;;;;;23.35;19.38;;;;;;;15.11;100.00;95598.19;4937306;28;20034;-89
2023/09/20 04:38:52;;;;;;;31.92;20.55;;;;;;;15.17;100.00;95600.06;4942355;28;20027;-86
2023/09/20 04:41:18;;;;;;;22.58;20.10;;;;;;;15.27;100.00;95597.16;4964423;28;20088;-90
2023/09/20 04:43:43;;;;;;;23.40;19.65;;;;;;;15.28;100.00;95589.13;4958552;28;20105;-90
2023/09/20 04:46:10;;;;;;;25.80;21.60;;;;;;;15.38;100.00;95582.84;4947303;28;20035;-89
2023/09/20 04:48:38;;;;;;;29.77;21.75;;;;;;;15.30;100.00;95581.97;4930774;28;20512;-89
2023/09/20 04:51:04;;;;;;;24.80;19.33;;;;;;;15.35;100.00;95588.44;4930241;28;20027;-90
2023/09/20 04:53:29;;;;;;;25.27;19.90;;;;;;;15.41;100.00;95587.69;4946510;28;20038;-89
2023/09/20 04:55:56;;;;;;;34.65;25.10;;;;;;;15.41;100.00;95592.91;4930306;28;20023;-89
2023/09/20 04:58:21;;;;;;;28.48;21.80;;;;;;;15.39;100.00;95589.66;4934500;29;20074;-89
2023/09/20 05:00:48;;;;;;;26.88;21.45;;;;;;;15.50;100.00;95599.66;4928954;29;20066;-92
2023/09/20 05:03:15;;;;;;;22.92;20.35;;;;;;;15.43;100.00;95596.13;4940694;28;20050;-90
2023/09/20 05:05:41;;;;;;;24.20;21.60;;;;;;;15.39;100.00;95597.50;4933599;28;20030;-91
2023/09/20 05:08:08;;;;;;;75.05;33.67;;;;;;;15.10;100.00;95600.97;4931167;28;20058;-90
2023/09/20 05:10:34;;;;;;;26.02;20.73;;;;;;;15.43;100.00;95620.44;4932514;29;20854;-91
2023/09/20 05:13:00;;;;;;;29.60;19.70;;;;;;;15.53;100.00;95625.41;4930149;28;20035;-88
2023/09/20 05:15:25;;;;;;;22.88;20.40;;;;;;;15.48;100.00;95619.91;4958663;28;20031;-89
2023/09/20 05:17:51;;;;;;;22.92;18.77;;;;;;;15.44;100.00;95618.66;4943049;29;20082;-87
2023/09/20 05:20:17;;;;;;;24.90;17.42;;;;;;;15.44;100.00;95621.25;4926590;29;20066;-90
2023/09/20 05:22:42;;;;;;;33.88;22.38;;;;;;;15.49;100.00;95621.53;4923770;29;20027;-87
2023/09/20 05:25:09;;;;;;;26.80;19.55;;;;;;;15.49;100.00;95619.75;4937446;28;20577;-87
2023/09/20 05:27:35;;;;;;;43.72;21.02;;;;;;;15.37;100.00;95630.81;4913599;28;20505;-86
2023/09/20 05:30:01;;;;;;;21.60;18.88;;;;;;;15.37;100.00;95633.41;4918155;29;20596;-89
2023/09/20 05:32:27;;;;;;;20.08;17.50;;;;;;;15.57;100.00;95639.72;4939811;28;20035;-86
2023/09/20 05:34:52;;;;;;;21.15;17.48;;;;;;;15.62;100.00;95646.00;4942631;28;20039;-88
2023/09/20 05:37:18;;;;;;;19.08;16.95;;;;;;;15.60;100.00;95640.16;4899335;29;20105;-88
2023/09/20 05:39:48;;;;;;;27.67;18.33;;;;;;;15.63;100.00;95639.78;4901582;29;20126;-88
2023/09/20 05:42:14;;;;;;;24.17;17.75;;;;;;;15.62;100.00;95645.19;4926443;29;20078;-88
2023/09/20 05:44:40;;;;;;;27.48;17.48;;;;;;;15.59;100.00;95635.09;4954549;28;20042;-89
2023/09/20 05:47:08;;;;;;;22.80;17.05;;;;;;;15.60;100.00;95639.34;4933445;29;20046;-91
2023/09/20 05:49:34;;;;;;;19.25;17.35;;;;;;;15.71;100.00;95650.09;4939069;28;20110;-88
2023/09/20 05:52:00;;;;;;;29.27;22.45;;;;;;;15.60;100.00;95648.00;4922920;29;20110;-88
2023/09/20 05:54:25;;;;;;;30.63;21.83;;;;;;;15.49;100.00;95661.50;4926655;28;20081;-90
2023/09/20 05:56:51;;;;;;;25.17;19.45;;;;;;;15.76;100.00;95665.25;4926077;28;20054;-90
2023/09/20 05:59:17;;;;;;;40.67;24.00;;;;;;;15.60;100.00;95668.06;4911716;28;20051;-89
2023/09/20 06:01:42;;;;;;;29.65;21.95;;;;;;;15.81;100.00;95671.53;4942963;28;20047;-89
2023/09/20 06:04:09;;;;;;;52.80;20.42;;;;;;;15.87;100.00;95667.34;4926585;28;20299;-90
2023/09/20 06:06:37;;;;;;;26.02;21.77;;;;;;;16.02;100.00;95672.53;4943036;28;20027;-89
2023/09/20 06:09:03;;;;;;;28.40;23.70;;;;;;;16.06;100.00;95669.34;4932244;29;20035;-89
2023/09/20 06:11:28;;;;;;;29.70;22.45;;;;;;;16.07;100.00;95672.78;4957844;28;20026;-89
2023/09/20 06:13:54;;;;;;;27.65;22.23;;;;;;;16.20;100.00;95676.34;4929233;28;20408;-89
2023/09/20 06:16:20;;;;;;;25.75;22.13;;;;;;;16.15;100.00;95676.06;4947322;28;20042;-90
2023/09/20 06:18:47;;;;;;;28.42;23.58;;;;;;;16.14;100.00;95671.03;4946917;28;20042;-90
2023/09/20 06:21:14;;;;;;;32.20;24.92;;;;;;;16.21;100.00;95671.91;4930981;28;20035;-90
2023/09/20 06:23:40;;;;;;;27.83;22.73;;;;;;;16.25;100.00;95675.75;4946725;28;20066;-90
2023/09/20 06:26:09;;;;;;;24.50;21.92;;;;;;;16.25;100.00;95668.72;4946637;28;20102;-90
2023/09/20 06:28:35;;;;;;;24.70;20.65;;;;;;;16.24;100.00;95648.84;4931279;28;20038;-90
2023/09/20 06:31:01;;;;;;;24.48;19.52;;;;;;;16.39;100.00;95653.16;4946781;28;20023;-89
2023/09/20 06:33:26;;;;;;;24.00;19.17;;;;;;;16.35;100.00;95653.53;4917999;29;20028;-90
2023/09/20 06:35:55;;;;;;;21.48;19.25;;;;;;;16.40;100.00;95666.06;4937337;29;20039;-88
2023/09/20 06:38:23;;;;;;;24.80;21.52;;;;;;;16.48;100.00;95649.41;4931919;28;20567;-90
2023/09/20 06:40:52;;;;;;;20.92;18.80;;;;;;;16.60;100.00;95640.09;4933732;28;20030;-90
2023/09/20 06:43:18;;;;;;;21.15;19.00;;;;;;;16.62;100.00;95638.88;4930702;28;20106;-90
2023/09/20 06:45:50;;;;;;;24.88;20.60;;;;;;;16.53;100.00;95613.03;4946411;28;20298;-91
2023/09/20 06:48:17;;;;;;;21.90;19.70;;;;;;;16.24;100.00;95590.50;4931197;28;20121;-92
2023/09/20 06:50:43;;;;;;;26.52;20.50;;;;;;;16.21;100.00;95596.91;4947396;28;20409;-91
2023/09/20 06:53:09;;;;;;;21.52;19.35;;;;;;;16.49;100.00;95599.53;4930816;28;20070;-92
2023/09/20 06:55:34;;;;;;;27.98;22.63;;;;;;;16.51;100.00;95599.31;4964384;28;20170;-92
2023/09/20 06:58:00;;;;;;;30.00;22.95;;;;;;;16.40;100.00;95590.22;4963950;28;20027;-91
2023/09/20 07:00:25;;;;;;;32.83;24.27;;;;;;;16.31;100.00;95604.44;4919136;29;20027;-91
2023/09/20 07:02:53;;;;;;;22.85;19.88;;;;;;;16.74;100.00;95613.00;4948697;28;20054;-91
2023/09/20 07:05:18;;;;;;;31.52;22.90;;;;;;;16.61;100.00;95594.59;4963746;28;20022;-92
2023/09/20 07:07:45;;;;;;;26.92;22.65;;;;;;;16.55;100.00;95611.06;4933846;28;20031;-90
2023/09/20 07:10:10;;;;;;;31.30;24.30;;;;;;;16.24;100.00;95614.84;4930323;28;20452;-92
2023/09/20 07:12:38;;;;;;;27.10;22.60;;;;;;;16.48;100.00;95625.88;4934547;28;20031;-91
2023/09/20 07:15:06;;;;;;;32.22;24.63;;;;;;;16.21;100.00;95628.25;4963569;28;20125;-93
2023/09/20 07:17:32;;;;;;;23.98;20.15;;;;;;;16.71;100.00;95623.84;4947412;28;20029;-92
2023/09/20 07:19:57;;;;;;;21.00;18.70;;;;;;;16.78;100.00;95601.16;4959061;28;20031;-91
2023/09/20 07:22:23;;;;;;;20.92;19.00;;;;;;;17.04;100.00;95590.84;4938192;28;20034;-91
2023/09/20 07:24:54;;;;;;;19.27;17.17;;;;;;;16.91;100.00;95561.16;4930117;28;20487;-92
2023/09/20 07:27:20;;;;;;;21.35;19.15;;;;;;;17.00;100.00;95549.53;4963546;28;20117;-91
2023/09/20 07:29:45;;;;;;;20.50;18.35;;;;;;;16.96;100.00;95546.47;4946345;28;20031;-92
2023/09/20 07:32:11;;;;;;;22.70;20.50;;;;;;;16.79;100.00;95551.22;4923195;29;20031;-93
2023/09/20 07:34:36;;;;;;;20.98;18.27;;;;;;;16.76;100.00;95566.53;4945067;29;20416;-92
2023/09/20 07:37:02;;;;;;;19.20;17.40;;;;;;;17.05;100.00;95565.47;4941944;28;20043;-92
2023/09/20 07:39:28;;;;;;;20.13;18.17;;;;;;;17.10;100.00;95542.94;4938895;29;20031;-91
2023/09/20 07:41:58;;;;;;;20.15;18.15;;;;;;;17.22;100.00;95520.41;4926951;29;20482;-91
2023/09/20 07:44:24;;;;;;;18.98;17.17;;;;;;;17.13;100.00;95524.22;4904191;28;20038;-91
2023/09/20 07:46:52;;;;;;;23.83;21.42;;;;;;;16.54;100.00;95538.78;4946473;28;20038;-91
2023/09/20 07:49:19;;;;;;;20.30;18.40;;;;;;;16.98;100.00;95551.53;4909706;29;20160;-92
2023/09/20 07:51:45;;;;;;;20.75;18.67;;;;;;;17.14;100.00;95565.09;4902926;29;20027;-92
2023/09/20 07:54:10;;;;;;;19.80;17.92;;;;;;;17.42;100.00;95537.97;4940425;28;20087;-90
2023/09/20 07:56:40;;;;;;;21.05;18.95;;;;;;;17.64;100.00;95518.50;4926718;29;20027;-91
2023/09/20 07:59:05;;;;;;;17.75;16.00;;;;;;;17.72;100.00;95484.25;4943979;28;20038;-90
2023/09/20 08:01:32;;;;;;;16.42;14.93;;;;;;;17.68;100.00;95473.38;4932440;28;20046;-88
2023/09/20 08:04:00;;;;;;;15.70;14.40;;;;;;;17.85;100.00;95468.53;4945469;28;20034;-88
2023/09/20 08:06:32;;;;;;;17.90;16.17;;;;;;;17.90;100.00;95458.22;4928606;28;20033;-88
2023/09/20 08:08:58;;;;;;;15.30;13.95;;;;;;;18.01;100.00;95455.00;4928820;28;20120;-86
2023/09/20 08:11:24;;;;;;;16.02;14.57;;;;;;;17.98;100.00;95429.19;4939802;29;20126;-86
2023/09/20 08:13:51;;;;;;;16.85;15.45;;;;;;;17.95;100.00;95410.47;4934605;28;20395;-86
2023/09/20 09:00:22;;;;;;;23.05;20.80;;;;;;;18.68;100.00;95280.63;5121339;27;20087;-85
2023/09/20 09:02:58;;;;;;;20.08;18.30;;;;;;;18.22;100.00;95360.34;5136342;27;20552;-86
2023/09/20 09:05:27;;;;;;;19.15;17.48;;;;;;;19.21;100.00;95334.34;5137463;27;20015;-83
2023/09/20 09:07:53;;;;;;;17.52;16.05;;;;;;;19.74;100.00;95269.00;5136022;27;20460;-84
2023/09/20 09:10:18;;;;;;;16.35;15.13;;;;;;;20.10;100.00;95248.97;5137017;27;20030;-83
2023/09/20 09:12:44;;;;;;;17.13;15.55;;;;;;;19.68;100.00;95237.53;5136220;27;20052;-83
2023/09/20 09:15:11;;;;;;;16.73;15.32;;;;;;;20.19;100.00;95219.50;5136539;27;20031;-82
2023/09/20 09:17:40;;;;;;;14.93;13.73;;;;;;;20.74;100.00;95224.59;5137035;27;20197;-82
2023/09/20 09:20:10;;;;;;;15.55;14.38;;;;;;;20.41;100.00;95227.72;5136116;27;20026;-82
2023/09/20 09:22:36;;;;;;;15.95;14.65;;;;;;;20.09;100.00;95210.53;5137121;27;20023;-82
2023/09/20 09:25:02;;;;;;;16.52;15.13;;;;;;;20.48;100.00;95207.38;5112559;27;20461;-83
2023/09/20 09:27:30;;;;;;;15.65;14.35;;;;;;;20.87;100.00;95188.28;5121733;27;20032;-83
2023/09/20 09:29:57;;;;;;;16.67;15.27;;;;;;;21.06;100.00;95193.47;5122090;27;20027;-81
2023/09/20 09:32:24;;;;;;;15.68;14.32;;;;;;;22.05;100.00;95161.56;5122758;27;20031;-82
2023/09/20 09:34:49;;;;;;;15.52;14.05;;;;;;;22.14;100.00;95152.22;5122849;27;20031;-81
2023/09/20 09:37:15;;;;;;;15.38;14.18;;;;;;;22.46;100.00;95139.28;5121948;27;20023;-83
2023/09/20 09:39:42;;;;;;;14.98;13.82;;;;;;;22.60;100.00;95133.44;5116570;27;20035;-82
2023/09/20 09:42:09;;;;;;;14.55;13.38;;;;;;;22.62;100.00;95121.84;5069198;28;20029;-83
2023/09/20 09:44:51;;;;;;;15.00;13.68;;;;;;;22.52;100.00;95107.44;5090608;27;20805;-82
2023/09/20 09:47:17;;;;;;;17.45;15.95;;;;;;;20.56;100.00;95153.59;5093708;27;20023;-82
2023/09/20 09:49:43;;;;;;;15.52;13.95;;;;;;;20.62;100.00;95148.22;5091637;27;20023;-83
2023/09/20 09:52:09;;;;;;;13.85;12.65;;;;;;;22.10;100.00;95142.34;5103348;27;20105;-82
2023/09/20 09:54:35;;;;;;;17.10;13.75;;;;;;;22.33;100.00;95114.00;5088099;27;20157;-81
2023/09/20 09:57:01;;;;;;;13.65;12.52;;;;;;;21.98;100.00;95106.28;5092273;28;20036;-81
2023/09/20 09:59:26;;;;;;;14.10;12.93;;;;;;;22.57;100.00;95107.50;5069545;28;20485;-81
2023/09/20 10:01:55;;;;;;;12.27;11.30;;;;;;;23.19;100.00;95099.41;5092741;28;20031;-81
2023/09/20 10:04:20;;;;;;;12.90;11.77;;;;;;;23.60;100.00;95093.59;5094262;28;20114;-80
2023/09/20 10:06:55;;;;;;;12.15;11.05;;;;;;;23.45;100.00;95088.16;5092937;28;20652;-83
2023/09/20 10:09:30;;;;;;;13.00;11.88;;;;;;;23.13;100.00;95087.19;5090117;28;20028;-81
2023/09/20 10:11:56;;;;;;;11.77;10.77;;;;;;;23.58;100.00;95082.47;5080317;28;20088;-80
2023/09/20 10:14:22;;;;;;;12.38;11.48;;;;;;;23.56;100.00;95076.66;5085426;28;20273;-81
2023/09/20 10:16:48;;;;;;;12.05;11.07;;;;;;;23.57;100.00;95080.06;5074358;28;20070;-83
2023/09/20 10:19:15;;;;;;;12.88;11.65;;;;;;;23.45;100.00;95074.91;5082016;28;20028;-82
2023/09/20 10:22:08;;;;;;;12.00;11.00;;;;;;;22.91;100.00;95078.44;5100013;27;20027;-82
2023/09/20 10:24:45;;;;;;;10.75;9.88;;;;;;;23.58;100.00;95074.53;5093814;28;20076;-82
2023/09/20 10:27:15;;;;;;;11.75;10.82;;;;;;;23.22;100.00;95067.22;5094263;27;20522;-81
2023/09/20 10:29:42;;;;;;;10.10;9.30;;;;;;;23.56;100.00;95068.72;5096720;28;20024;-81
2023/09/20 10:32:17;;;;;;;11.60;10.50;;;;;;;23.99;100.00;95064.34;5117372;27;20083;-82
2023/09/20 10:35:19;;;;;;;10.95;9.90;;;;;;;24.26;100.00;95056.41;5105862;27;20085;-83
2023/09/20 10:38:10;;;;;;;10.70;9.68;;;;;;;24.25;100.00;95060.09;5107456;27;20403;-80
2023/09/20 10:40:49;;;;;;;8.85;8.15;;;;;;;24.09;100.00;95045.91;5120460;27;20011;-79
2023/09/20 10:43:36;;;;;;;8.65;7.85;;;;;;;24.36;100.00;95048.56;5121866;27;20031;-80
2023/09/20 10:46:18;;;;;;;8.45;7.65;;;;;;;24.02;100.00;95045.31;5097024;27;20861;-84
2023/09/20 10:48:50;;;;;;;8.20;7.43;;;;;;;24.41;100.00;95045.94;5108457;27;20081;-82
2023/09/20 10:51:44;;;;;;;8.05;7.35;;;;;;;24.29;100.00;95035.53;5088160;28;20483;-82
2023/09/20 10:54:22;;;;;;;7.60;7.00;;;;;;;24.60;100.00;95031.22;5092671;27;20047;-84
2023/09/20 10:56:50;;;;;;;;;;;;;;;24.50;100.00;95017.91;5102393;27;20028;-87
2023/09/20 10:59:18;;;;;;;9.07;6.65;;;;;;;24.61;100.00;95014.28;5101969;27;19912;-84
2023/09/20 11:01:50;;;;;;;8.75;8.00;;;;;;;24.26;100.00;95000.81;5103742;27;20024;-87
2023/09/20 11:04:16;;;;;;;9.90;9.20;;;;;;;24.28;100.00;95004.78;5090357;28;20077;-83
2023/09/20 11:06:45;;;;;;;10.55;8.63;;;;;;;24.27;100.00;94995.28;5094697;27;20495;-83
2023/09/20 11:09:15;;;;;;;;;;;;;;;24.42;100.00;94995.34;5097984;28;20095;-84
2023/09/20 11:11:42;;;;;;;9.07;8.38;;;;;;;24.69;100.00;94989.97;5094963;27;19915;-83
2023/09/20 11:14:08;;;;;;;7.50;5.65;;;;;;;24.97;100.00;94984.28;5109767;27;20051;-84
2023/09/20 11:16:33;;;;;;;5.88;5.38;;;;;;;24.82;100.00;94972.81;5104725;27;20536;-84
2023/09/20 11:18:59;;;;;;;6.43;5.93;;;;;;;24.47;100.00;94954.84;5103403;27;20032;-83
2023/09/20 11:21:25;;;;;;;8.43;7.72;;;;;;;24.76;100.00;94968.50;5088970;27;20035;-84
2023/09/20 11:23:53;;;;;;;7.20;6.60;;;;;;;24.73;100.00;94959.22;5092564;27;20024;-85
2023/09/20 11:26:28;;;;;;;;;;;;;;;24.55;100.00;94957.81;5088244;28;20090;-82
2023/09/20 11:28:54;;;;;;;6.82;6.18;;;;;;;24.69;100.00;94949.41;5086728;27;19920;-85
2023/09/20 11:31:26;;;;;;;6.82;6.22;;;;;;;24.86;100.00;94944.72;5100733;27;20027;-83
2023/09/20 11:34:03;;;;;;;5.43;5.03;;;;;;;25.28;100.00;94944.59;5113652;27;20035;-83
2023/09/20 11:36:30;;;;;;;6.38;3.08;;;;;;;24.80;97.39;94943.09;5113198;27;20053;-86
2023/09/20 11:38:55;;;;;;;5.07;3.80;;;;;;;25.05;100.00;94945.84;5097361;27;20039;-83
2023/09/20 11:41:24;;;;;;;3.78;3.20;;;;;;;24.60;97.07;94935.84;5108634;27;20093;-87
2023/09/20 11:43:55;;;;;;;;;;;;;;;24.84;99.34;94938.91;5105004;27;20028;-85
2023/09/20 11:46:21;;;;;;;3.85;3.45;;;;;;;25.09;98.05;94933.66;5113432;27;19920;-85
2023/09/20 11:48:48;;;;;;;5.38;3.92;;;;;;;25.11;100.00;94934.19;5083447;28;20042;-83
2023/09/20 11:51:15;;;;;;;5.72;4.78;;;;;;;25.04;100.00;94926.50;5100391;27;20027;-85
2023/09/20 11:53:42;;;;;;;6.85;4.22;;;;;;;25.12;100.00;94930.50;5091417;27;20055;-86
2023/09/20 11:56:07;;;;;;;4.88;4.47;;;;;;;24.92;100.00;94919.81;5101904;28;20047;-87
2023/09/20 11:58:34;;;;;;;6.88;4.78;;;;;;;25.02;99.65;94925.16;5100703;28;20405;-82
2023/09/20 12:01:03;;;;;;;6.85;4.40;;;;;;;24.99;97.13;94915.88;5120001;27;20035;-84
2023/09/20 12:03:29;;;;;;;7.22;4.32;;;;;;;25.24;99.76;94917.00;5109766;27;20653;-82